createdAt,value
2018-04-12T00:00:46.901Z,14.70
2018-04-12T00:03:15.212Z,14.70
2018-04-12T00:05:43.461Z,14.80
2018-04-12T00:08:11.723Z,14.70
2018-04-12T00:10:40.738Z,14.70
2018-04-12T00:13:09.018Z,14.70
2018-04-12T00:15:38.134Z,14.60
2018-04-12T00:18:06.405Z,14.70
2018-04-12T00:20:34.671Z,14.50
2018-04-12T00:23:02.945Z,14.50
2018-04-12T00:25:31.223Z,14.40
2018-04-12T00:28:00.514Z,14.40
2018-04-12T00:30:28.785Z,14.40
2018-04-12T00:32:57.081Z,14.50
2018-04-12T00:35:25.348Z,14.50
2018-04-12T00:37:53.615Z,14.40
2018-04-12T00:40:21.890Z,14.40
2018-04-12T00:42:50.176Z,14.50
2018-04-12T00:45:18.458Z,14.60
2018-04-12T00:47:46.735Z,14.60
2018-04-12T00:50:15.024Z,14.50
2018-04-12T00:52:43.278Z,14.30
2018-04-12T00:55:11.551Z,14.40
2018-04-12T00:57:40.655Z,14.40
2018-04-12T01:00:08.935Z,14.50
2018-04-12T01:02:37.226Z,14.40
2018-04-12T01:05:05.490Z,14.40
2018-04-12T01:07:33.747Z,14.30
2018-04-12T01:10:02.028Z,14.10
2018-04-12T01:12:30.276Z,13.90
2018-04-12T01:14:58.543Z,13.80
2018-04-12T01:17:26.795Z,13.80
2018-04-12T01:19:55.070Z,13.80
2018-04-12T01:22:23.330Z,13.90
2018-04-12T01:24:52.038Z,13.90
2018-04-12T01:27:20.293Z,13.80
2018-04-12T01:29:48.558Z,13.90
2018-04-12T01:32:16.972Z,14.00
2018-04-12T01:34:45.234Z,13.90
2018-04-12T01:37:13.506Z,13.80
2018-04-12T01:39:41.764Z,13.80
2018-04-12T01:42:10.064Z,13.90
2018-04-12T01:44:38.326Z,14.00
2018-04-12T01:47:06.583Z,13.90
2018-04-12T01:49:34.851Z,13.90
2018-04-12T01:52:03.112Z,13.90
2018-04-12T01:54:31.362Z,14.00
2018-04-12T01:56:59.612Z,13.90
2018-04-12T01:59:27.871Z,13.90
2018-04-12T02:01:56.139Z,13.90
2018-04-12T02:04:24.425Z,13.90
2018-04-12T02:06:52.690Z,13.70
2018-04-12T02:09:21.702Z,13.70
2018-04-12T02:11:49.972Z,13.70
2018-04-12T02:14:18.267Z,13.70
2018-04-12T02:16:46.523Z,13.90
2018-04-12T02:19:14.787Z,13.80
2018-04-12T02:21:43.086Z,13.60
2018-04-12T02:24:12.052Z,13.80
2018-04-12T02:26:40.313Z,13.80
2018-04-12T02:29:09.335Z,14.00
2018-04-12T02:31:37.577Z,14.00
2018-04-12T02:34:06.619Z,14.00
2018-04-12T02:36:34.873Z,14.00
2018-04-12T02:39:03.125Z,13.90
2018-04-12T02:41:32.158Z,13.60
2018-04-12T02:44:00.420Z,13.50
2018-04-12T02:46:28.733Z,13.50
2018-04-12T02:48:56.970Z,13.50
2018-04-12T02:51:25.246Z,13.50
2018-04-12T02:53:53.501Z,13.40
2018-04-12T02:56:22.523Z,13.30
2018-04-12T02:58:50.786Z,13.30
2018-04-12T03:01:19.818Z,13.50
2018-04-12T03:03:48.082Z,13.40
2018-04-12T03:06:16.343Z,13.50
2018-04-12T03:08:44.610Z,13.60
2018-04-12T03:11:12.889Z,13.60
2018-04-12T03:13:41.167Z,13.60
2018-04-12T03:16:09.423Z,13.60
2018-04-12T03:18:38.458Z,13.30
2018-04-12T03:21:06.708Z,13.30
2018-04-12T03:23:35.010Z,13.20
2018-04-12T03:26:03.286Z,13.10
2018-04-12T03:28:31.573Z,13.20
2018-04-12T03:30:59.822Z,13.30
2018-04-12T03:33:28.713Z,13.50
2018-04-12T03:35:56.966Z,13.50
2018-04-12T03:38:25.230Z,13.50
2018-04-12T03:40:55.158Z,13.50
2018-04-12T03:43:24.190Z,13.40
2018-04-12T03:45:52.452Z,13.40
2018-04-12T03:48:20.718Z,13.50
2018-04-12T03:50:48.979Z,13.50
2018-04-12T03:53:17.251Z,13.50
2018-04-12T03:55:46.283Z,13.40
2018-04-12T03:58:14.529Z,13.40
2018-04-12T04:00:42.771Z,13.40
2018-04-12T04:03:11.047Z,13.40
2018-04-12T04:05:39.304Z,13.40
2018-04-12T04:08:07.554Z,13.40
2018-04-12T04:10:35.806Z,13.40
2018-04-12T04:13:04.831Z,13.50
2018-04-12T04:15:45.753Z,13.50
2018-04-12T04:18:25.928Z,13.40
2018-04-12T04:21:09.406Z,13.40
2018-04-12T04:23:37.671Z,13.40
2018-04-12T04:26:05.930Z,13.40
2018-04-12T04:28:34.203Z,13.40
2018-04-12T04:31:02.466Z,13.40
2018-04-12T04:33:31.499Z,13.40
2018-04-12T04:35:59.759Z,13.40
2018-04-12T04:38:28.816Z,13.50
2018-04-12T04:40:58.244Z,13.60
2018-04-12T04:43:26.490Z,13.50
2018-04-12T04:45:56.136Z,13.50
2018-04-12T04:48:24.403Z,13.50
2018-04-12T04:50:52.706Z,13.50
2018-04-12T04:53:20.985Z,13.50
2018-04-12T04:55:49.334Z,13.50
2018-04-12T04:58:18.362Z,13.50
2018-04-12T05:00:46.649Z,13.50
2018-04-12T05:03:14.889Z,13.50
2018-04-12T05:05:43.262Z,13.50
2018-04-12T05:08:11.512Z,13.50
2018-04-12T05:10:40.542Z,13.50
2018-04-12T05:13:08.874Z,13.50
2018-04-12T05:15:38.008Z,13.50
2018-04-12T05:18:06.977Z,13.50
2018-04-12T05:20:36.913Z,13.50
2018-04-12T05:23:05.937Z,13.60
2018-04-12T05:25:34.236Z,13.50
2018-04-12T05:28:03.342Z,13.60
2018-04-12T05:30:33.731Z,13.70
2018-04-12T05:33:01.998Z,13.80
2018-04-12T05:35:30.261Z,13.80
2018-04-12T05:37:58.522Z,13.80
2018-04-12T05:40:27.596Z,13.70
2018-04-12T05:42:55.849Z,13.80
2018-04-12T05:45:24.130Z,13.90
2018-04-12T05:47:52.443Z,13.80
2018-04-12T05:50:21.515Z,14.20
2018-04-12T05:52:49.751Z,14.20
2018-04-12T05:55:18.047Z,14.30
2018-04-12T05:57:46.301Z,14.30
2018-04-12T06:00:14.560Z,14.50
2018-04-12T06:02:42.847Z,14.60
2018-04-12T06:05:11.134Z,14.50
2018-04-12T06:07:40.017Z,14.60
2018-04-12T06:10:08.287Z,14.50
2018-04-12T06:12:36.554Z,14.60
2018-04-12T06:15:04.866Z,14.60
2018-04-12T06:17:33.126Z,14.60
2018-04-12T06:20:01.428Z,14.50
2018-04-12T06:22:29.699Z,14.50
2018-04-12T06:24:58.625Z,14.40
2018-04-12T06:27:26.879Z,14.30
2018-04-12T06:29:55.864Z,14.20
2018-04-12T06:32:24.984Z,14.40
2018-04-12T06:34:53.234Z,14.70
2018-04-12T06:37:21.527Z,14.90
2018-04-12T06:39:49.860Z,15.00
2018-04-12T06:42:18.095Z,15.00
2018-04-12T06:44:47.124Z,15.10
2018-04-12T06:47:15.838Z,15.10
2018-04-12T06:49:44.108Z,15.20
2018-04-12T06:52:12.353Z,15.20
2018-04-12T06:54:40.638Z,15.30
2018-04-12T06:57:08.939Z,15.40
2018-04-12T06:59:37.327Z,15.40
2018-04-12T07:02:07.336Z,15.50
2018-04-12T07:04:36.512Z,15.50
2018-04-12T07:07:04.785Z,15.50
2018-04-12T07:09:33.089Z,15.70
2018-04-12T07:12:01.351Z,15.80
2018-04-12T07:14:29.612Z,16.00
2018-04-12T07:16:57.891Z,16.20
2018-04-12T07:19:26.192Z,16.30
2018-04-12T07:21:54.479Z,16.70
2018-04-12T07:24:22.733Z,17.60
2018-04-12T07:26:51.010Z,18.30
2018-04-12T07:29:19.250Z,18.10
2018-04-12T07:31:47.532Z,17.90
2018-04-12T07:34:15.778Z,18.00
2018-04-12T07:36:44.816Z,18.20
2018-04-12T07:39:13.118Z,18.20
2018-04-12T07:41:41.374Z,18.00
2018-04-12T07:44:09.680Z,17.80
2018-04-12T07:46:37.916Z,17.60
2018-04-12T07:49:06.206Z,17.50
2018-04-12T07:51:34.470Z,17.40
2018-04-12T07:54:02.745Z,17.20
2018-04-12T07:56:31.028Z,17.20
2018-04-12T07:58:59.335Z,17.30
2018-04-12T08:01:27.595Z,17.40
2018-04-12T08:03:55.875Z,17.80
2018-04-12T08:06:24.147Z,18.70
2018-04-12T08:08:52.428Z,20.10
2018-04-12T08:11:20.694Z,20.90
2018-04-12T08:13:49.058Z,21.40
2018-04-12T08:16:17.336Z,21.10
2018-04-12T08:18:45.607Z,20.60
2018-04-12T08:21:13.899Z,20.10
2018-04-12T08:23:42.178Z,19.60
2018-04-12T08:26:10.445Z,19.10
2018-04-12T08:28:38.689Z,18.80
2018-04-12T08:31:07.095Z,18.60
2018-04-12T08:33:35.370Z,18.40
2018-04-12T08:36:03.645Z,18.40
2018-04-12T08:38:32.694Z,18.40
2018-04-12T08:41:00.984Z,18.30
2018-04-12T08:43:29.993Z,18.30
2018-04-12T08:45:59.047Z,18.40
2018-04-12T08:48:27.304Z,18.40
2018-04-12T08:50:55.567Z,18.40
2018-04-12T08:53:23.840Z,18.40
2018-04-12T08:55:52.235Z,18.50
2018-04-12T08:58:20.506Z,18.40
2018-04-12T09:00:49.447Z,18.50
2018-04-12T09:03:18.473Z,18.60
2018-04-12T09:05:46.802Z,18.60
2018-04-12T09:08:15.047Z,18.60
2018-04-12T09:10:43.358Z,18.60
2018-04-12T09:13:11.619Z,18.60
2018-04-12T09:15:39.890Z,18.50
2018-04-12T09:18:08.316Z,18.50
2018-04-12T09:20:36.546Z,18.50
2018-04-12T09:23:05.240Z,18.60
2018-04-12T09:25:33.779Z,18.80
2018-04-12T09:28:02.028Z,19.20
2018-04-12T09:30:31.085Z,19.60
2018-04-12T09:32:59.360Z,19.60
2018-04-12T09:35:27.614Z,19.80
2018-04-12T09:37:55.951Z,20.00
2018-04-12T09:40:24.198Z,20.10
2018-04-12T09:42:52.467Z,20.50
2018-04-12T09:45:20.975Z,20.50
2018-04-12T09:47:49.246Z,20.30
2018-04-12T09:50:17.501Z,20.20
2018-04-12T09:52:45.764Z,20.20
2018-04-12T09:55:14.947Z,20.30
2018-04-12T09:57:43.964Z,20.30
2018-04-12T10:00:12.245Z,20.10
2018-04-12T10:02:46.138Z,20.20
2018-04-12T10:05:20.201Z,20.20
2018-04-12T10:07:51.035Z,20.10
2018-04-12T10:10:19.288Z,20.10
2018-04-12T10:15:23.311Z,20.20
2018-04-12T10:17:51.590Z,20.20
2018-04-12T10:20:20.425Z,20.40
2018-04-12T10:22:49.487Z,20.80
2018-04-12T10:25:22.225Z,20.80
2018-04-12T10:27:50.587Z,20.90
2018-04-12T10:30:18.861Z,20.70
2018-04-12T10:32:47.238Z,20.50
2018-04-12T10:35:16.409Z,20.30
2018-04-12T10:37:44.696Z,20.20
2018-04-12T10:40:13.969Z,20.30
2018-04-12T10:42:46.807Z,20.40
2018-04-12T10:45:15.325Z,20.80
2018-04-12T10:47:43.719Z,21.00
2018-04-12T10:50:11.986Z,21.10
2018-04-12T10:52:40.259Z,21.20
2018-04-12T10:55:08.535Z,21.10
2018-04-12T10:57:36.809Z,21.10
2018-04-12T11:00:05.080Z,21.10
2018-04-12T11:02:33.454Z,21.10
2018-04-12T11:05:01.806Z,21.20
2018-04-12T11:07:30.050Z,21.40
2018-04-12T11:09:59.150Z,21.60
2018-04-12T11:12:27.435Z,21.50
2018-04-12T11:14:55.716Z,21.60
2018-04-12T11:17:25.495Z,21.70
2018-04-12T11:19:53.749Z,21.70
2018-04-12T11:22:22.014Z,21.80
2018-04-12T11:24:50.288Z,21.80
2018-04-12T11:27:18.537Z,21.80
2018-04-12T11:29:47.199Z,21.70
2018-04-12T11:32:15.514Z,21.90
2018-04-12T11:34:43.784Z,22.00
2018-04-12T11:37:12.054Z,22.20
2018-04-12T11:39:41.066Z,22.20
2018-04-12T11:42:09.763Z,22.10
2018-04-12T11:44:38.678Z,22.20
2018-04-12T11:47:07.718Z,22.20
2018-04-12T11:49:36.034Z,22.20
2018-04-12T11:52:04.294Z,22.40
2018-04-12T11:54:32.596Z,22.40
2018-04-12T11:57:00.872Z,22.40
2018-04-12T11:59:29.131Z,22.20
2018-04-12T12:01:57.643Z,22.10
2018-04-12T12:04:25.918Z,22.00
2018-04-12T12:06:54.227Z,21.90
2018-04-12T12:09:22.446Z,21.80
2018-04-12T12:11:50.702Z,21.80
2018-04-12T12:14:18.995Z,21.80
2018-04-12T12:16:47.245Z,21.80
2018-04-12T12:19:15.498Z,21.80
2018-04-12T12:21:43.749Z,21.80
2018-04-12T12:24:12.365Z,21.60
2018-04-12T12:26:40.626Z,21.70
2018-04-12T12:29:08.900Z,21.80
2018-04-12T12:31:37.156Z,21.70
2018-04-12T12:34:05.430Z,21.50
2018-04-12T12:36:33.695Z,21.40
2018-04-12T12:39:02.038Z,21.30
2018-04-12T12:41:30.291Z,21.30
2018-04-12T12:43:59.395Z,21.40
2018-04-12T12:46:28.541Z,21.50
2018-04-12T12:48:56.790Z,21.50
2018-04-12T12:51:25.099Z,21.50
2018-04-12T12:53:53.344Z,21.50
2018-04-12T12:56:21.610Z,21.40
2018-04-12T12:58:49.875Z,21.30
2018-04-12T13:01:18.213Z,21.10
2018-04-12T13:03:46.470Z,21.10
2018-04-12T13:06:14.717Z,21.00
2018-04-12T13:08:42.989Z,21.10
2018-04-12T13:11:11.259Z,21.10
2018-04-12T13:13:39.534Z,21.20
2018-04-12T13:16:07.806Z,21.40
2018-04-12T13:18:36.082Z,21.50
2018-04-12T13:21:04.383Z,21.60
2018-04-12T13:23:32.680Z,21.70
2018-04-12T13:26:00.925Z,21.80
2018-04-12T13:28:29.191Z,21.70
2018-04-12T13:30:57.444Z,21.70
2018-04-12T13:33:26.521Z,21.50
2018-04-12T13:35:54.782Z,21.50
2018-04-12T13:38:23.058Z,21.50
2018-04-12T13:40:51.402Z,21.50
2018-04-12T13:43:19.684Z,21.40
2018-04-12T13:45:47.931Z,21.40
2018-04-12T13:48:16.272Z,21.50
2018-04-12T13:50:44.612Z,21.50
2018-04-12T13:53:12.923Z,21.50
2018-04-12T13:55:41.224Z,21.60
2018-04-12T13:58:09.559Z,21.50
2018-04-12T14:00:37.841Z,21.50
2018-04-12T14:03:06.130Z,21.50
2018-04-12T14:05:34.548Z,21.60
2018-04-12T14:08:02.845Z,21.60
2018-04-12T14:10:31.148Z,21.60
2018-04-12T14:12:59.417Z,21.70
2018-04-12T14:15:27.788Z,21.70
2018-04-12T14:17:56.090Z,21.70
2018-04-12T14:20:24.340Z,21.70
2018-04-12T14:22:52.634Z,21.70
2018-04-12T14:25:20.893Z,21.70
2018-04-12T14:27:49.163Z,21.70
2018-04-12T14:30:17.444Z,21.70
2018-04-12T14:32:45.718Z,21.70
2018-04-12T14:35:14.003Z,21.60
2018-04-12T14:37:42.266Z,21.50
2018-04-12T14:40:10.540Z,21.50
2018-04-12T14:42:38.797Z,21.50
2018-04-12T14:45:07.806Z,21.60
2018-04-12T14:47:36.147Z,21.60
2018-04-12T14:50:04.387Z,21.60
2018-04-12T14:52:32.789Z,21.70
2018-04-12T14:55:01.070Z,21.70
2018-04-12T14:57:29.329Z,21.70
2018-04-12T14:59:57.605Z,21.70
2018-04-12T15:02:26.122Z,21.70
2018-04-12T15:04:54.435Z,21.80
2018-04-12T15:07:22.694Z,21.70
2018-04-12T15:09:50.992Z,21.60
2018-04-12T15:12:19.415Z,21.60
2018-04-12T15:14:47.690Z,21.60
2018-04-12T15:17:15.995Z,21.50
2018-04-12T15:19:45.002Z,21.50
2018-04-12T15:22:13.312Z,21.50
2018-04-12T15:24:41.574Z,21.50
2018-04-12T15:27:09.838Z,21.40
2018-04-12T15:29:38.295Z,21.40
2018-04-12T15:32:07.391Z,21.40
2018-04-12T15:34:35.623Z,21.40
2018-04-12T15:37:04.038Z,21.50
2018-04-12T15:39:33.074Z,21.60
2018-04-12T15:42:02.269Z,21.60
2018-04-12T15:44:30.545Z,21.50
2018-04-12T15:46:58.804Z,21.50
2018-04-12T15:49:27.070Z,21.40
2018-04-12T15:51:56.080Z,21.30
2018-04-12T15:54:24.389Z,21.30
2018-04-12T15:56:52.659Z,21.40
2018-04-12T15:59:20.944Z,21.40
2018-04-12T16:01:49.237Z,21.30
2018-04-12T16:04:17.503Z,21.20
2018-04-12T16:06:45.784Z,21.10
2018-04-12T16:09:14.241Z,21.00
2018-04-12T16:11:42.654Z,20.90
2018-04-12T16:14:10.953Z,20.80
2018-04-12T16:16:39.212Z,20.70
2018-04-12T16:19:07.519Z,20.60
2018-04-12T16:21:35.792Z,20.50
2018-04-12T16:24:04.057Z,20.40
2018-04-12T16:26:32.347Z,20.40
2018-04-12T16:29:01.377Z,20.30
2018-04-12T16:31:29.662Z,20.30
2018-04-12T16:33:57.966Z,20.30
2018-04-12T16:36:26.273Z,20.30
2018-04-12T16:38:54.632Z,20.30
2018-04-12T16:41:24.234Z,20.40
2018-04-12T16:43:52.540Z,20.30
2018-04-12T16:46:20.830Z,20.50
2018-04-12T16:48:49.891Z,20.50
2018-04-12T16:51:18.145Z,20.50
2018-04-12T16:53:46.408Z,20.60
2018-04-12T16:56:14.691Z,20.60
2018-04-12T16:58:42.966Z,20.60
2018-04-12T17:01:11.237Z,20.60
2018-04-12T17:03:39.550Z,20.50
2018-04-12T17:06:08.620Z,20.40
2018-04-12T17:08:36.990Z,20.40
2018-04-12T17:11:05.251Z,20.30
2018-04-12T17:13:33.545Z,20.30
2018-04-12T17:16:01.850Z,20.30
2018-04-12T17:18:30.092Z,20.40
2018-04-12T17:20:58.373Z,20.40
2018-04-12T17:23:26.629Z,20.30
2018-04-12T17:25:54.943Z,20.30
2018-04-12T17:28:23.265Z,20.40
2018-04-12T17:30:51.557Z,20.40
2018-04-12T17:33:19.815Z,20.40
2018-04-12T17:35:48.091Z,20.30
2018-04-12T17:38:16.392Z,20.30
2018-04-12T17:40:44.654Z,20.30
2018-04-12T17:43:12.893Z,20.20
2018-04-12T17:45:41.913Z,20.00
2018-04-12T17:48:10.213Z,20.00
2018-04-12T17:50:38.448Z,19.90
2018-04-12T17:53:07.516Z,19.80
2018-04-12T17:55:35.795Z,19.80
2018-04-12T17:58:04.831Z,19.70
2018-04-12T18:00:33.075Z,19.70
2018-04-12T18:03:02.107Z,19.50
2018-04-12T18:05:30.487Z,19.50
2018-04-12T18:07:58.789Z,19.50
2018-04-12T18:10:27.037Z,19.40
2018-04-12T18:12:55.347Z,19.40
2018-04-12T18:15:23.591Z,19.30
2018-04-12T18:17:51.870Z,19.20
2018-04-12T18:20:20.160Z,19.10
2018-04-12T18:22:48.406Z,19.10
2018-04-12T18:25:16.685Z,19.00
2018-04-12T18:27:44.933Z,18.90
2018-04-12T18:30:13.956Z,18.60
2018-04-12T18:32:42.238Z,18.60
2018-04-12T18:35:10.764Z,18.60
2018-04-12T18:37:38.998Z,18.40
2018-04-12T18:40:07.291Z,18.30
2018-04-12T18:42:35.550Z,18.30
2018-04-12T18:45:03.823Z,18.20
2018-04-12T18:47:32.111Z,18.20
2018-04-12T18:50:00.378Z,18.20
2018-04-12T18:52:28.650Z,18.10
2018-04-12T18:54:56.934Z,18.10
2018-04-12T18:57:25.197Z,18.10
2018-04-12T18:59:53.529Z,18.10
2018-04-12T19:02:21.790Z,18.00
2018-04-12T19:04:50.074Z,18.00
2018-04-12T19:07:18.683Z,17.90
2018-04-12T19:09:46.986Z,17.80
2018-04-12T19:12:15.251Z,17.70
2018-04-12T19:14:43.542Z,17.70
2018-04-12T19:17:11.811Z,17.60
2018-04-12T19:19:40.081Z,17.60
2018-04-12T19:22:08.330Z,17.50
2018-04-12T19:24:36.605Z,17.50
2018-04-12T19:27:04.885Z,17.30
2018-04-12T19:29:33.137Z,17.20
2018-04-12T19:32:01.406Z,17.10
2018-04-12T19:34:29.685Z,17.00
2018-04-12T19:36:57.964Z,17.00
2018-04-12T19:39:26.235Z,16.90
2018-04-12T19:41:55.330Z,16.90
2018-04-12T19:44:23.578Z,16.90
2018-04-12T19:46:51.856Z,17.00
2018-04-12T19:49:20.147Z,17.00
2018-04-12T19:51:48.406Z,17.10
2018-04-12T19:54:16.679Z,17.20
2018-04-12T19:56:44.963Z,17.20
2018-04-12T19:59:13.226Z,17.20
2018-04-12T20:01:41.537Z,17.20
2018-04-12T20:04:09.791Z,17.20
2018-04-12T20:06:38.068Z,17.20
2018-04-12T20:09:06.332Z,17.10
2018-04-12T20:11:35.426Z,17.10
2018-04-12T20:14:04.471Z,17.10
2018-04-12T20:16:32.774Z,17.10
2018-04-12T20:19:01.822Z,16.90
2018-04-12T20:21:30.177Z,16.90
2018-04-12T20:23:58.445Z,16.80
2018-04-12T20:26:26.702Z,16.90
2018-04-12T20:28:55.727Z,16.90
2018-04-12T20:31:24.759Z,17.00
2018-04-12T20:33:53.073Z,17.00
2018-04-12T20:36:21.361Z,17.00
2018-04-12T20:38:49.810Z,17.10
2018-04-12T20:41:18.368Z,17.10
2018-04-12T20:43:46.612Z,17.00
2018-04-12T20:46:14.928Z,17.00
2018-04-12T20:48:43.396Z,17.00
2018-04-12T20:51:11.700Z,17.00
2018-04-12T20:53:39.971Z,17.00
2018-04-12T20:56:08.240Z,16.90
2018-04-12T20:58:36.522Z,16.80
2018-04-12T21:01:04.787Z,16.80
2018-04-12T21:03:33.039Z,16.80
2018-04-12T21:06:01.381Z,16.70
2018-04-12T21:08:30.435Z,16.60
2018-04-12T21:10:58.701Z,16.60
2018-04-12T21:13:26.960Z,16.50
2018-04-12T21:15:55.256Z,16.40
2018-04-12T21:18:23.530Z,16.40
2018-04-12T21:20:51.786Z,16.40
2018-04-12T21:23:20.052Z,16.30
2018-04-12T21:25:48.294Z,16.20
2018-04-12T21:28:17.326Z,16.20
2018-04-12T21:30:45.604Z,16.20
2018-04-12T21:33:13.891Z,16.20
2018-04-12T21:35:42.158Z,16.20
2018-04-12T21:38:10.411Z,16.20
2018-04-12T21:40:39.440Z,16.20
2018-04-12T21:43:07.698Z,16.20
2018-04-12T21:45:35.975Z,16.20
2018-04-12T21:48:04.235Z,16.10
2018-04-12T21:50:32.510Z,16.00
2018-04-12T21:53:00.754Z,16.00
2018-04-12T21:55:29.026Z,16.00
2018-04-12T21:57:57.295Z,15.90
2018-04-12T22:00:25.544Z,15.90
2018-04-12T22:02:53.829Z,15.90
2018-04-12T22:05:23.532Z,15.90
2018-04-12T22:07:51.837Z,15.80
2018-04-12T22:10:20.085Z,15.80
2018-04-12T22:12:48.355Z,15.70
2018-04-12T22:15:16.672Z,15.70
2018-04-12T22:17:44.978Z,15.60
2018-04-12T22:20:13.260Z,15.50
2018-04-12T22:22:42.270Z,15.50
2018-04-12T22:25:10.545Z,15.50
2018-04-12T22:27:38.857Z,15.50
2018-04-12T22:30:07.142Z,15.50
2018-04-12T22:32:35.448Z,15.50
2018-04-12T22:35:03.715Z,15.40
2018-04-12T22:37:32.034Z,15.30
2018-04-12T22:40:00.389Z,15.30
2018-04-12T22:42:28.711Z,15.30
2018-04-12T22:44:57.014Z,15.20
2018-04-12T22:47:25.330Z,15.20
2018-04-12T22:49:53.582Z,15.10
2018-04-12T22:52:22.622Z,15.10
2018-04-12T22:54:50.953Z,15.10
2018-04-12T22:57:20.736Z,15.10
2018-04-12T22:59:48.982Z,15.10
2018-04-12T23:02:17.264Z,15.00
2018-04-12T23:04:45.630Z,15.00
2018-04-12T23:07:13.939Z,14.80
2018-04-12T23:09:42.182Z,14.80
2018-04-12T23:12:10.552Z,14.80
2018-04-12T23:14:38.842Z,14.70
2018-04-12T23:17:07.123Z,14.60
2018-04-12T23:19:35.453Z,14.70
2018-04-12T23:22:03.727Z,14.70
2018-04-12T23:24:32.038Z,14.70
2018-04-12T23:27:01.050Z,14.70
2018-04-12T23:29:29.318Z,14.60
2018-04-12T23:31:57.612Z,14.70
2018-04-12T23:34:26.712Z,14.40
2018-04-12T23:36:55.068Z,14.40
2018-04-12T23:39:23.340Z,14.50
2018-04-12T23:41:51.605Z,14.50
2018-04-12T23:44:20.779Z,14.50
2018-04-12T23:46:49.119Z,14.60
2018-04-12T23:49:17.393Z,14.50
2018-04-12T23:51:45.660Z,14.40
2018-04-12T23:54:13.940Z,14.40
2018-04-12T23:56:42.258Z,14.30
2018-04-12T23:59:10.523Z,14.20
